sensor_id;sensor_type;location;lat;lon;timestamp;P1;durP1;ratioP1;P2;durP2;ratioP2
25657;SDS011;13517;59.320;18.042;2023-07-24T00:00:49;8.32;;;4.15;;
25657;SDS011;13517;59.320;18.042;2023-07-24T00:03:14;10.15;;;4.00;;
25657;SDS011;13517;59.320;18.042;2023-07-24T00:05:39;9.85;;;4.10;;
25657;SDS011;13517;59.320;18.042;2023-07-24T00:08:05;8.30;;;4.32;;
25657;SDS011;13517;59.320;18.042;2023-07-24T00:10:31;6.88;;;4.00;;
25657;SDS011;13517;59.320;18.042;2023-07-24T00:12:57;7.47;;;4.72;;
25657;SDS011;13517;59.320;18.042;2023-07-24T00:15:22;14.57;;;4.78;;
25657;SDS011;13517;59.320;18.042;2023-07-24T00:17:48;10.02;;;4.85;;
25657;SDS011;13517;59.320;18.042;2023-07-24T00:20:13;11.27;;;4.57;;
25657;SDS011;13517;59.320;18.042;2023-07-24T00:22:39;7.45;;;4.18;;
25657;SDS011;13517;59.320;18.042;2023-07-24T00:25:05;6.85;;;3.97;;
25657;SDS011;13517;59.320;18.042;2023-07-24T00:27:31;8.98;;;4.30;;
25657;SDS011;13517;59.320;18.042;2023-07-24T00:29:56;7.32;;;4.15;;
25657;SDS011;13517;59.320;18.042;2023-07-24T00:32:22;5.85;;;3.90;;
25657;SDS011;13517;59.320;18.042;2023-07-24T00:34:47;9.18;;;4.00;;
25657;SDS011;13517;59.320;18.042;2023-07-24T00:37:13;9.48;;;4.53;;
25657;SDS011;13517;59.320;18.042;2023-07-24T00:39:38;11.25;;;4.55;;
25657;SDS011;13517;59.320;18.042;2023-07-24T00:42:03;8.30;;;4.32;;
25657;SDS011;13517;59.320;18.042;2023-07-24T00:44:29;10.85;;;4.35;;
25657;SDS011;13517;59.320;18.042;2023-07-24T00:46:54;8.45;;;4.22;;
25657;SDS011;13517;59.320;18.042;2023-07-24T00:49:20;12.07;;;4.40;;
25657;SDS011;13517;59.320;18.042;2023-07-24T00:51:46;10.90;;;4.30;;
25657;SDS011;13517;59.320;18.042;2023-07-24T00:54:12;7.22;;;4.07;;
25657;SDS011;13517;59.320;18.042;2023-07-24T00:56:41;6.32;;;4.20;;
25657;SDS011;13517;59.320;18.042;2023-07-24T00:59:08;12.07;;;4.70;;
25657;SDS011;13517;59.320;18.042;2023-07-24T01:01:34;5.78;;;4.38;;
25657;SDS011;13517;59.320;18.042;2023-07-24T01:04:01;11.65;;;4.85;;
25657;SDS011;13517;59.320;18.042;2023-07-24T01:06:29;10.38;;;4.63;;
25657;SDS011;13517;59.320;18.042;2023-07-24T01:08:55;9.48;;;4.07;;
25657;SDS011;13517;59.320;18.042;2023-07-24T01:16:55;6.93;;;4.35;;
25657;SDS011;13517;59.320;18.042;2023-07-24T01:27:57;9.15;;;4.70;;
25657;SDS011;13517;59.320;18.042;2023-07-24T01:30:22;10.80;;;5.82;;
25657;SDS011;13517;59.320;18.042;2023-07-24T01:32:48;11.40;;;5.50;;
25657;SDS011;13517;59.320;18.042;2023-07-24T01:35:14;7.20;;;5.25;;
25657;SDS011;13517;59.320;18.042;2023-07-24T01:37:40;9.65;;;5.90;;
25657;SDS011;13517;59.320;18.042;2023-07-24T01:40:08;8.45;;;5.47;;
25657;SDS011;13517;59.320;18.042;2023-07-24T01:42:34;14.52;;;5.40;;
25657;SDS011;13517;59.320;18.042;2023-07-24T01:45:01;14.73;;;6.13;;
25657;SDS011;13517;59.320;18.042;2023-07-24T01:47:27;9.07;;;5.70;;
25657;SDS011;13517;59.320;18.042;2023-07-24T01:49:53;12.88;;;5.93;;
25657;SDS011;13517;59.320;18.042;2023-07-24T01:52:19;10.60;;;5.60;;
25657;SDS011;13517;59.320;18.042;2023-07-24T01:54:44;14.85;;;5.70;;
25657;SDS011;13517;59.320;18.042;2023-07-24T01:57:10;13.00;;;6.07;;
25657;SDS011;13517;59.320;18.042;2023-07-24T01:59:35;12.88;;;6.45;;
25657;SDS011;13517;59.320;18.042;2023-07-24T02:02:00;10.52;;;5.57;;
25657;SDS011;13517;59.320;18.042;2023-07-24T02:04:26;8.82;;;5.80;;
25657;SDS011;13517;59.320;18.042;2023-07-24T02:06:51;10.85;;;5.85;;
25657;SDS011;13517;59.320;18.042;2023-07-24T02:09:20;14.93;;;5.50;;
25657;SDS011;13517;59.320;18.042;2023-07-24T02:11:45;14.77;;;6.13;;
25657;SDS011;13517;59.320;18.042;2023-07-24T02:14:11;9.02;;;5.57;;
25657;SDS011;13517;59.320;18.042;2023-07-24T02:16:37;11.02;;;5.80;;
25657;SDS011;13517;59.320;18.042;2023-07-24T02:19:03;10.70;;;5.63;;
25657;SDS011;13517;59.320;18.042;2023-07-24T02:21:28;11.68;;;5.65;;
25657;SDS011;13517;59.320;18.042;2023-07-24T02:23:54;12.68;;;5.85;;
25657;SDS011;13517;59.320;18.042;2023-07-24T02:26:19;10.07;;;5.75;;
25657;SDS011;13517;59.320;18.042;2023-07-24T02:28:45;6.30;;;4.88;;
25657;SDS011;13517;59.320;18.042;2023-07-24T02:31:10;14.65;;;6.13;;
25657;SDS011;13517;59.320;18.042;2023-07-24T02:33:36;12.05;;;6.18;;
25657;SDS011;13517;59.320;18.042;2023-07-24T02:36:01;9.40;;;6.38;;
25657;SDS011;13517;59.320;18.042;2023-07-24T02:38:27;8.38;;;4.95;;
25657;SDS011;13517;59.320;18.042;2023-07-24T02:40:53;8.63;;;4.55;;
25657;SDS011;13517;59.320;18.042;2023-07-24T02:43:18;7.70;;;4.30;;
25657;SDS011;13517;59.320;18.042;2023-07-24T02:45:43;11.40;;;5.53;;
25657;SDS011;13517;59.320;18.042;2023-07-24T02:48:09;7.22;;;4.97;;
25657;SDS011;13517;59.320;18.042;2023-07-24T02:50:34;10.38;;;4.90;;
25657;SDS011;13517;59.320;18.042;2023-07-24T02:53:00;9.82;;;4.70;;
25657;SDS011;13517;59.320;18.042;2023-07-24T02:55:26;10.85;;;4.63;;
25657;SDS011;13517;59.320;18.042;2023-07-24T02:57:51;10.30;;;4.88;;
25657;SDS011;13517;59.320;18.042;2023-07-24T03:00:16;7.60;;;4.45;;
25657;SDS011;13517;59.320;18.042;2023-07-24T03:02:42;8.45;;;4.18;;
25657;SDS011;13517;59.320;18.042;2023-07-24T03:05:07;7.70;;;4.28;;
25657;SDS011;13517;59.320;18.042;2023-07-24T03:07:33;9.38;;;4.53;;
25657;SDS011;13517;59.320;18.042;2023-07-24T03:09:58;7.28;;;4.00;;
25657;SDS011;13517;59.320;18.042;2023-07-24T03:12:24;7.97;;;4.20;;
25657;SDS011;13517;59.320;18.042;2023-07-24T03:14:50;7.70;;;3.53;;
25657;SDS011;13517;59.320;18.042;2023-07-24T03:17:15;9.32;;;3.50;;
25657;SDS011;13517;59.320;18.042;2023-07-24T03:19:41;9.50;;;4.38;;
25657;SDS011;13517;59.320;18.042;2023-07-24T03:22:07;6.40;;;3.45;;
25657;SDS011;13517;59.320;18.042;2023-07-24T03:24:33;7.78;;;3.38;;
25657;SDS011;13517;59.320;18.042;2023-07-24T03:26:58;5.25;;;3.45;;
25657;SDS011;13517;59.320;18.042;2023-07-24T03:29:25;11.77;;;3.42;;
25657;SDS011;13517;59.320;18.042;2023-07-24T03:31:51;6.63;;;3.60;;
25657;SDS011;13517;59.320;18.042;2023-07-24T03:34:16;6.70;;;3.70;;
25657;SDS011;13517;59.320;18.042;2023-07-24T03:36:42;5.75;;;3.67;;
25657;SDS011;13517;59.320;18.042;2023-07-24T03:39:08;4.88;;;3.40;;
25657;SDS011;13517;59.320;18.042;2023-07-24T03:41:34;6.07;;;2.65;;
25657;SDS011;13517;59.320;18.042;2023-07-24T03:44:00;6.63;;;3.78;;
25657;SDS011;13517;59.320;18.042;2023-07-24T03:46:25;6.53;;;4.18;;
25657;SDS011;13517;59.320;18.042;2023-07-24T03:48:50;7.75;;;4.03;;
25657;SDS011;13517;59.320;18.042;2023-07-24T03:51:16;5.13;;;3.40;;
25657;SDS011;13517;59.320;18.042;2023-07-24T03:53:41;8.80;;;3.75;;
25657;SDS011;13517;59.320;18.042;2023-07-24T03:56:07;5.72;;;3.78;;
25657;SDS011;13517;59.320;18.042;2023-07-24T03:58:32;9.50;;;4.00;;
25657;SDS011;13517;59.320;18.042;2023-07-24T04:00:58;7.47;;;4.88;;
25657;SDS011;13517;59.320;18.042;2023-07-24T04:03:23;9.45;;;4.55;;
25657;SDS011;13517;59.320;18.042;2023-07-24T04:05:49;7.70;;;4.38;;
25657;SDS011;13517;59.320;18.042;2023-07-24T04:08:14;9.00;;;4.78;;
25657;SDS011;13517;59.320;18.042;2023-07-24T04:10:39;11.00;;;5.45;;
25657;SDS011;13517;59.320;18.042;2023-07-24T04:13:05;7.47;;;4.70;;
25657;SDS011;13517;59.320;18.042;2023-07-24T04:15:30;6.47;;;4.07;;
25657;SDS011;13517;59.320;18.042;2023-07-24T04:17:55;6.57;;;4.40;;
25657;SDS011;13517;59.320;18.042;2023-07-24T04:20:21;6.72;;;4.70;;
25657;SDS011;13517;59.320;18.042;2023-07-24T04:22:46;10.25;;;5.63;;
25657;SDS011;13517;59.320;18.042;2023-07-24T04:25:12;9.75;;;5.47;;
25657;SDS011;13517;59.320;18.042;2023-07-24T04:27:37;10.30;;;6.35;;
25657;SDS011;13517;59.320;18.042;2023-07-24T04:30:02;14.13;;;6.70;;
25657;SDS011;13517;59.320;18.042;2023-07-24T04:32:28;9.32;;;5.68;;
25657;SDS011;13517;59.320;18.042;2023-07-24T04:34:54;10.90;;;5.80;;
25657;SDS011;13517;59.320;18.042;2023-07-24T04:37:19;8.20;;;5.55;;
25657;SDS011;13517;59.320;18.042;2023-07-24T04:39:44;11.00;;;5.15;;
25657;SDS011;13517;59.320;18.042;2023-07-24T04:42:10;6.47;;;5.30;;
25657;SDS011;13517;59.320;18.042;2023-07-24T04:44:35;13.05;;;5.22;;
25657;SDS011;13517;59.320;18.042;2023-07-24T04:47:01;8.57;;;5.18;;
25657;SDS011;13517;59.320;18.042;2023-07-24T04:49:29;10.35;;;5.32;;
25657;SDS011;13517;59.320;18.042;2023-07-24T04:51:55;8.93;;;5.13;;
25657;SDS011;13517;59.320;18.042;2023-07-24T04:54:21;9.80;;;5.82;;
25657;SDS011;13517;59.320;18.042;2023-07-24T04:56:46;11.82;;;6.13;;
25657;SDS011;13517;59.320;18.042;2023-07-24T04:59:11;12.10;;;5.50;;
25657;SDS011;13517;59.320;18.042;2023-07-24T05:01:37;8.90;;;5.03;;
25657;SDS011;13517;59.320;18.042;2023-07-24T05:04:02;15.45;;;5.97;;
25657;SDS011;13517;59.320;18.042;2023-07-24T05:06:28;7.28;;;4.53;;
25657;SDS011;13517;59.320;18.042;2023-07-24T05:08:53;11.15;;;5.03;;
25657;SDS011;13517;59.320;18.042;2023-07-24T05:11:19;10.77;;;5.32;;
25657;SDS011;13517;59.320;18.042;2023-07-24T05:13:44;7.70;;;4.55;;
25657;SDS011;13517;59.320;18.042;2023-07-24T05:16:11;6.90;;;4.13;;
25657;SDS011;13517;59.320;18.042;2023-07-24T05:18:36;9.63;;;5.00;;
25657;SDS011;13517;59.320;18.042;2023-07-24T05:21:02;6.15;;;3.75;;
25657;SDS011;13517;59.320;18.042;2023-07-24T05:23:27;10.73;;;4.07;;
25657;SDS011;13517;59.320;18.042;2023-07-24T05:25:56;8.57;;;4.60;;
25657;SDS011;13517;59.320;18.042;2023-07-24T05:28:26;9.00;;;3.85;;
25657;SDS011;13517;59.320;18.042;2023-07-24T05:30:55;6.60;;;3.85;;
25657;SDS011;13517;59.320;18.042;2023-07-24T05:33:21;8.77;;;4.05;;
25657;SDS011;13517;59.320;18.042;2023-07-24T05:35:48;8.23;;;4.57;;
25657;SDS011;13517;59.320;18.042;2023-07-24T05:38:13;8.60;;;4.30;;
25657;SDS011;13517;59.320;18.042;2023-07-24T05:40:39;5.90;;;3.88;;
25657;SDS011;13517;59.320;18.042;2023-07-24T05:43:04;7.57;;;4.18;;
25657;SDS011;13517;59.320;18.042;2023-07-24T05:45:30;8.30;;;3.80;;
25657;SDS011;13517;59.320;18.042;2023-07-24T05:47:55;9.13;;;4.32;;
25657;SDS011;13517;59.320;18.042;2023-07-24T05:50:20;8.93;;;3.70;;
25657;SDS011;13517;59.320;18.042;2023-07-24T05:52:46;4.18;;;3.17;;
25657;SDS011;13517;59.320;18.042;2023-07-24T05:55:11;9.10;;;3.88;;
25657;SDS011;13517;59.320;18.042;2023-07-24T05:57:37;6.22;;;3.75;;
25657;SDS011;13517;59.320;18.042;2023-07-24T06:00:03;5.63;;;3.58;;
25657;SDS011;13517;59.320;18.042;2023-07-24T06:02:29;8.57;;;3.95;;
25657;SDS011;13517;59.320;18.042;2023-07-24T06:04:55;5.10;;;3.05;;
25657;SDS011;13517;59.320;18.042;2023-07-24T06:07:20;8.75;;;3.90;;
25657;SDS011;13517;59.320;18.042;2023-07-24T06:09:46;6.60;;;3.55;;
25657;SDS011;13517;59.320;18.042;2023-07-24T06:12:11;11.88;;;4.20;;
25657;SDS011;13517;59.320;18.042;2023-07-24T06:14:36;8.55;;;4.00;;
25657;SDS011;13517;59.320;18.042;2023-07-24T06:17:02;9.73;;;3.83;;
25657;SDS011;13517;59.320;18.042;2023-07-24T06:19:27;6.13;;;3.67;;
25657;SDS011;13517;59.320;18.042;2023-07-24T06:21:53;4.15;;;3.28;;
25657;SDS011;13517;59.320;18.042;2023-07-24T06:24:18;8.73;;;3.30;;
25657;SDS011;13517;59.320;18.042;2023-07-24T06:26:43;4.13;;;2.90;;
25657;SDS011;13517;59.320;18.042;2023-07-24T06:29:09;7.30;;;3.47;;
25657;SDS011;13517;59.320;18.042;2023-07-24T06:31:34;8.57;;;3.20;;
25657;SDS011;13517;59.320;18.042;2023-07-24T06:33:59;5.63;;;3.28;;
25657;SDS011;13517;59.320;18.042;2023-07-24T06:36:25;4.15;;;3.00;;
25657;SDS011;13517;59.320;18.042;2023-07-24T06:38:51;7.43;;;3.33;;
25657;SDS011;13517;59.320;18.042;2023-07-24T06:41:16;8.23;;;3.10;;
25657;SDS011;13517;59.320;18.042;2023-07-24T06:43:42;8.32;;;3.33;;
25657;SDS011;13517;59.320;18.042;2023-07-24T06:46:07;8.02;;;2.90;;
25657;SDS011;13517;59.320;18.042;2023-07-24T06:48:33;6.00;;;2.55;;
25657;SDS011;13517;59.320;18.042;2023-07-24T06:50:58;5.68;;;2.67;;
25657;SDS011;13517;59.320;18.042;2023-07-24T06:53:24;4.65;;;2.40;;
25657;SDS011;13517;59.320;18.042;2023-07-24T06:55:49;6.07;;;2.80;;
25657;SDS011;13517;59.320;18.042;2023-07-24T06:58:14;5.07;;;2.30;;
25657;SDS011;13517;59.320;18.042;2023-07-24T07:00:40;7.18;;;2.85;;
25657;SDS011;13517;59.320;18.042;2023-07-24T07:03:05;7.07;;;2.30;;
25657;SDS011;13517;59.320;18.042;2023-07-24T07:05:34;3.65;;;1.98;;
25657;SDS011;13517;59.320;18.042;2023-07-24T07:07:59;4.43;;;2.40;;
25657;SDS011;13517;59.320;18.042;2023-07-24T07:10:24;2.78;;;2.08;;
25657;SDS011;13517;59.320;18.042;2023-07-24T07:12:50;4.93;;;2.30;;
25657;SDS011;13517;59.320;18.042;2023-07-24T07:15:15;2.95;;;1.98;;
25657;SDS011;13517;59.320;18.042;2023-07-24T07:17:41;3.85;;;2.30;;
25657;SDS011;13517;59.320;18.042;2023-07-24T07:20:06;6.07;;;2.00;;
25657;SDS011;13517;59.320;18.042;2023-07-24T07:22:32;19.33;;;2.70;;
25657;SDS011;13517;59.320;18.042;2023-07-24T07:24:57;3.50;;;2.17;;
25657;SDS011;13517;59.320;18.042;2023-07-24T07:27:23;2.33;;;1.73;;
25657;SDS011;13517;59.320;18.042;2023-07-24T07:29:48;6.00;;;1.77;;
25657;SDS011;13517;59.320;18.042;2023-07-24T07:32:13;2.75;;;1.90;;
25657;SDS011;13517;59.320;18.042;2023-07-24T07:34:39;4.38;;;2.38;;
25657;SDS011;13517;59.320;18.042;2023-07-24T07:37:05;4.28;;;1.85;;
25657;SDS011;13517;59.320;18.042;2023-07-24T07:39:31;5.60;;;2.20;;
25657;SDS011;13517;59.320;18.042;2023-07-24T07:41:57;2.65;;;1.73;;
25657;SDS011;13517;59.320;18.042;2023-07-24T07:44:23;5.55;;;1.65;;
25657;SDS011;13517;59.320;18.042;2023-07-24T07:46:48;3.80;;;2.08;;
25657;SDS011;13517;59.320;18.042;2023-07-24T07:49:13;4.28;;;1.40;;
25657;SDS011;13517;59.320;18.042;2023-07-24T07:51:39;4.28;;;1.85;;
25657;SDS011;13517;59.320;18.042;2023-07-24T07:54:04;2.50;;;1.85;;
25657;SDS011;13517;59.320;18.042;2023-07-24T07:56:29;4.30;;;2.15;;
25657;SDS011;13517;59.320;18.042;2023-07-24T07:58:55;3.22;;;1.70;;
25657;SDS011;13517;59.320;18.042;2023-07-24T08:01:20;6.03;;;1.70;;
25657;SDS011;13517;59.320;18.042;2023-07-24T08:03:46;2.92;;;1.70;;
25657;SDS011;13517;59.320;18.042;2023-07-24T08:06:11;5.68;;;1.90;;
25657;SDS011;13517;59.320;18.042;2023-07-24T08:08:37;5.43;;;2.28;;
25657;SDS011;13517;59.320;18.042;2023-07-24T08:11:03;2.70;;;1.48;;
25657;SDS011;13517;59.320;18.042;2023-07-24T08:13:32;8.50;;;2.05;;
25657;SDS011;13517;59.320;18.042;2023-07-24T08:15:59;3.65;;;2.03;;
25657;SDS011;13517;59.320;18.042;2023-07-24T08:18:25;4.10;;;1.83;;
25657;SDS011;13517;59.320;18.042;2023-07-24T08:20:50;2.58;;;1.90;;
25657;SDS011;13517;59.320;18.042;2023-07-24T08:23:16;3.70;;;1.60;;
25657;SDS011;13517;59.320;18.042;2023-07-24T08:25:50;4.35;;;2.30;;
25657;SDS011;13517;59.320;18.042;2023-07-24T08:28:19;2.00;;;1.63;;
25657;SDS011;13517;59.320;18.042;2023-07-24T08:30:45;2.88;;;1.45;;
25657;SDS011;13517;59.320;18.042;2023-07-24T08:33:12;3.47;;;2.08;;
25657;SDS011;13517;59.320;18.042;2023-07-24T08:35:37;2.50;;;1.40;;
25657;SDS011;13517;59.320;18.042;2023-07-24T08:38:03;2.45;;;1.38;;
25657;SDS011;13517;59.320;18.042;2023-07-24T08:40:28;1.55;;;1.45;;
25657;SDS011;13517;59.320;18.042;2023-07-24T08:42:54;1.98;;;1.10;;
25657;SDS011;13517;59.320;18.042;2023-07-24T08:45:19;4.32;;;1.42;;
25657;SDS011;13517;59.320;18.042;2023-07-24T08:47:45;3.38;;;1.67;;
25657;SDS011;13517;59.320;18.042;2023-07-24T08:50:11;2.92;;;1.85;;
25657;SDS011;13517;59.320;18.042;2023-07-24T08:52:38;3.13;;;1.33;;
25657;SDS011;13517;59.320;18.042;2023-07-24T08:55:04;1.77;;;1.27;;
25657;SDS011;13517;59.320;18.042;2023-07-24T08:57:30;4.40;;;1.60;;
25657;SDS011;13517;59.320;18.042;2023-07-24T08:59:56;3.72;;;1.30;;
25657;SDS011;13517;59.320;18.042;2023-07-24T09:02:22;2.67;;;1.60;;
25657;SDS011;13517;59.320;18.042;2023-07-24T09:04:48;1.92;;;1.58;;
25657;SDS011;13517;59.320;18.042;2023-07-24T09:07:13;2.28;;;1.35;;
25657;SDS011;13517;59.320;18.042;2023-07-24T09:09:39;2.50;;;1.58;;
25657;SDS011;13517;59.320;18.042;2023-07-24T09:12:05;2.35;;;1.30;;
25657;SDS011;13517;59.320;18.042;2023-07-24T09:14:30;5.47;;;1.60;;
25657;SDS011;13517;59.320;18.042;2023-07-24T09:17:06;1.83;;;1.10;;
25657;SDS011;13517;59.320;18.042;2023-07-24T09:19:32;2.97;;;1.42;;
25657;SDS011;13517;59.320;18.042;2023-07-24T09:22:08;4.45;;;1.20;;
25657;SDS011;13517;59.320;18.042;2023-07-24T09:24:37;4.20;;;1.35;;
25657;SDS011;13517;59.320;18.042;2023-07-24T09:27:06;3.30;;;1.10;;
25657;SDS011;13517;59.320;18.042;2023-07-24T09:29:32;3.13;;;1.42;;
25657;SDS011;13517;59.320;18.042;2023-07-24T09:31:59;2.40;;;1.67;;
25657;SDS011;13517;59.320;18.042;2023-07-24T09:34:25;2.83;;;1.30;;
25657;SDS011;13517;59.320;18.042;2023-07-24T09:36:53;3.63;;;1.48;;
25657;SDS011;13517;59.320;18.042;2023-07-24T09:39:22;1.58;;;1.15;;
25657;SDS011;13517;59.320;18.042;2023-07-24T09:41:49;3.63;;;1.40;;
25657;SDS011;13517;59.320;18.042;2023-07-24T09:44:15;1.95;;;1.33;;
25657;SDS011;13517;59.320;18.042;2023-07-24T09:46:41;4.00;;;1.30;;
25657;SDS011;13517;59.320;18.042;2023-07-24T09:49:08;2.28;;;1.35;;
25657;SDS011;13517;59.320;18.042;2023-07-24T09:51:34;4.07;;;1.67;;
25657;SDS011;13517;59.320;18.042;2023-07-24T09:54:02;1.92;;;1.52;;
25657;SDS011;13517;59.320;18.042;2023-07-24T09:56:50;1.85;;;1.48;;
25657;SDS011;13517;59.320;18.042;2023-07-24T09:59:17;3.95;;;1.48;;
25657;SDS011;13517;59.320;18.042;2023-07-24T10:01:43;5.00;;;1.40;;
25657;SDS011;13517;59.320;18.042;2023-07-24T10:04:09;6.03;;;1.63;;
25657;SDS011;13517;59.320;18.042;2023-07-24T10:06:35;9.32;;;1.65;;
25657;SDS011;13517;59.320;18.042;2023-07-24T10:09:01;4.32;;;1.60;;
25657;SDS011;13517;59.320;18.042;2023-07-24T10:11:27;2.70;;;1.50;;
25657;SDS011;13517;59.320;18.042;2023-07-24T10:13:53;2.88;;;1.50;;
25657;SDS011;13517;59.320;18.042;2023-07-24T10:16:19;2.47;;;1.40;;
25657;SDS011;13517;59.320;18.042;2023-07-24T10:18:45;4.75;;;1.73;;
25657;SDS011;13517;59.320;18.042;2023-07-24T10:21:11;2.75;;;1.73;;
25657;SDS011;13517;59.320;18.042;2023-07-24T10:23:44;7.93;;;1.98;;
25657;SDS011;13517;59.320;18.042;2023-07-24T10:26:14;1.90;;;1.48;;
25657;SDS011;13517;59.320;18.042;2023-07-24T10:28:40;3.25;;;1.85;;
25657;SDS011;13517;59.320;18.042;2023-07-24T10:31:07;2.95;;;1.50;;
25657;SDS011;13517;59.320;18.042;2023-07-24T10:33:46;3.08;;;1.70;;
25657;SDS011;13517;59.320;18.042;2023-07-24T10:36:12;3.95;;;1.95;;
25657;SDS011;13517;59.320;18.042;2023-07-24T10:38:41;6.75;;;1.73;;
25657;SDS011;13517;59.320;18.042;2023-07-24T10:41:07;2.42;;;1.55;;
25657;SDS011;13517;59.320;18.042;2023-07-24T10:43:45;2.65;;;1.50;;
25657;SDS011;13517;59.320;18.042;2023-07-24T10:46:12;2.53;;;1.70;;
25657;SDS011;13517;59.320;18.042;2023-07-24T10:48:41;4.93;;;1.88;;
25657;SDS011;13517;59.320;18.042;2023-07-24T10:51:08;3.88;;;1.45;;
25657;SDS011;13517;59.320;18.042;2023-07-24T10:53:34;2.25;;;1.55;;
25657;SDS011;13517;59.320;18.042;2023-07-24T10:56:01;5.75;;;1.70;;
25657;SDS011;13517;59.320;18.042;2023-07-24T10:58:27;3.92;;;1.40;;
25657;SDS011;13517;59.320;18.042;2023-07-24T11:00:52;1.90;;;1.40;;
25657;SDS011;13517;59.320;18.042;2023-07-24T11:03:18;3.13;;;1.67;;
25657;SDS011;13517;59.320;18.042;2023-07-24T11:05:45;3.70;;;1.60;;
25657;SDS011;13517;59.320;18.042;2023-07-24T11:08:12;2.58;;;1.85;;
25657;SDS011;13517;59.320;18.042;2023-07-24T11:10:45;2.10;;;1.30;;
25657;SDS011;13517;59.320;18.042;2023-07-24T11:13:14;4.60;;;1.25;;
25657;SDS011;13517;59.320;18.042;2023-07-24T11:15:40;3.05;;;1.30;;
25657;SDS011;13517;59.320;18.042;2023-07-24T11:18:06;3.45;;;1.42;;
25657;SDS011;13517;59.320;18.042;2023-07-24T11:20:38;2.78;;;1.60;;
25657;SDS011;13517;59.320;18.042;2023-07-24T11:23:12;2.03;;;1.30;;
25657;SDS011;13517;59.320;18.042;2023-07-24T11:25:39;5.85;;;1.85;;
25657;SDS011;13517;59.320;18.042;2023-07-24T11:28:09;4.85;;;1.60;;
25657;SDS011;13517;59.320;18.042;2023-07-24T11:30:35;2.72;;;1.48;;
25657;SDS011;13517;59.320;18.042;2023-07-24T11:33:05;2.97;;;1.73;;
25657;SDS011;13517;59.320;18.042;2023-07-24T11:35:32;1.75;;;1.50;;
25657;SDS011;13517;59.320;18.042;2023-07-24T11:38:00;3.00;;;1.80;;
25657;SDS011;13517;59.320;18.042;2023-07-24T11:40:33;2.28;;;1.50;;
25657;SDS011;13517;59.320;18.042;2023-07-24T11:45:27;5.10;;;1.73;;
25657;SDS011;13517;59.320;18.042;2023-07-24T11:47:53;5.60;;;1.58;;
25657;SDS011;13517;59.320;18.042;2023-07-24T11:50:19;3.28;;;1.30;;
25657;SDS011;13517;59.320;18.042;2023-07-24T11:52:49;2.00;;;1.40;;
25657;SDS011;13517;59.320;18.042;2023-07-24T11:55:17;2.67;;;1.30;;
25657;SDS011;13517;59.320;18.042;2023-07-24T11:57:57;2.00;;;1.48;;
25657;SDS011;13517;59.320;18.042;2023-07-24T12:00:23;3.30;;;1.60;;
25657;SDS011;13517;59.320;18.042;2023-07-24T12:02:50;3.05;;;1.23;;
25657;SDS011;13517;59.320;18.042;2023-07-24T12:05:15;1.50;;;1.20;;
25657;SDS011;13517;59.320;18.042;2023-07-24T12:07:42;2.67;;;1.40;;
25657;SDS011;13517;59.320;18.042;2023-07-24T12:10:11;1.55;;;1.23;;
25657;SDS011;13517;59.320;18.042;2023-07-24T12:12:44;1.55;;;1.38;;
25657;SDS011;13517;59.320;18.042;2023-07-24T12:15:11;4.53;;;1.40;;
25657;SDS011;13517;59.320;18.042;2023-07-24T12:17:38;2.42;;;1.42;;
25657;SDS011;13517;59.320;18.042;2023-07-24T12:20:04;2.33;;;1.38;;
25657;SDS011;13517;59.320;18.042;2023-07-24T12:22:32;2.50;;;1.20;;
25657;SDS011;13517;59.320;18.042;2023-07-24T12:24:57;1.83;;;1.30;;
25657;SDS011;13517;59.320;18.042;2023-07-24T12:27:23;2.33;;;1.30;;
25657;SDS011;13517;59.320;18.042;2023-07-24T12:29:49;2.53;;;1.30;;
25657;SDS011;13517;59.320;18.042;2023-07-24T12:32:16;2.40;;;1.15;;
25657;SDS011;13517;59.320;18.042;2023-07-24T12:34:41;3.08;;;1.00;;
25657;SDS011;13517;59.320;18.042;2023-07-24T12:37:07;2.30;;;1.02;;
25657;SDS011;13517;59.320;18.042;2023-07-24T12:39:32;3.78;;;1.30;;
25657;SDS011;13517;59.320;18.042;2023-07-24T12:41:57;2.63;;;0.93;;
25657;SDS011;13517;59.320;18.042;2023-07-24T12:44:23;1.42;;;1.00;;
25657;SDS011;13517;59.320;18.042;2023-07-24T12:46:48;1.65;;;1.10;;
25657;SDS011;13517;59.320;18.042;2023-07-24T12:49:14;2.25;;;1.13;;
25657;SDS011;13517;59.320;18.042;2023-07-24T12:51:39;4.15;;;1.02;;
25657;SDS011;13517;59.320;18.042;2023-07-24T12:54:04;5.72;;;1.10;;
25657;SDS011;13517;59.320;18.042;2023-07-24T12:56:30;2.85;;;0.90;;
25657;SDS011;13517;59.320;18.042;2023-07-24T12:58:55;1.38;;;1.02;;
25657;SDS011;13517;59.320;18.042;2023-07-24T13:01:21;6.18;;;1.13;;
25657;SDS011;13517;59.320;18.042;2023-07-24T13:03:46;1.30;;;0.80;;
25657;SDS011;13517;59.320;18.042;2023-07-24T13:06:11;2.25;;;0.80;;
25657;SDS011;13517;59.320;18.042;2023-07-24T13:08:37;1.83;;;1.10;;
25657;SDS011;13517;59.320;18.042;2023-07-24T13:11:02;2.15;;;0.90;;
25657;SDS011;13517;59.320;18.042;2023-07-24T13:13:28;4.07;;;1.20;;
25657;SDS011;13517;59.320;18.042;2023-07-24T13:15:53;2.15;;;1.05;;
25657;SDS011;13517;59.320;18.042;2023-07-24T13:18:18;2.63;;;1.05;;
25657;SDS011;13517;59.320;18.042;2023-07-24T13:20:45;4.55;;;1.20;;
25657;SDS011;13517;59.320;18.042;2023-07-24T13:23:11;1.42;;;0.93;;
25657;SDS011;13517;59.320;18.042;2023-07-24T13:25:36;3.03;;;0.93;;
25657;SDS011;13517;59.320;18.042;2023-07-24T13:28:02;1.10;;;1.00;;
25657;SDS011;13517;59.320;18.042;2023-07-24T13:30:27;1.20;;;0.90;;
25657;SDS011;13517;59.320;18.042;2023-07-24T13:32:52;2.33;;;1.00;;
25657;SDS011;13517;59.320;18.042;2023-07-24T13:35:18;1.85;;;1.00;;
25657;SDS011;13517;59.320;18.042;2023-07-24T13:37:43;2.47;;;1.13;;
25657;SDS011;13517;59.320;18.042;2023-07-24T13:40:09;1.88;;;1.25;;
25657;SDS011;13517;59.320;18.042;2023-07-24T13:42:34;1.50;;;0.98;;
25657;SDS011;13517;59.320;18.042;2023-07-24T13:45:01;1.83;;;1.00;;
25657;SDS011;13517;59.320;18.042;2023-07-24T13:47:26;5.53;;;1.00;;
25657;SDS011;13517;59.320;18.042;2023-07-24T13:49:52;1.33;;;1.00;;
25657;SDS011;13517;59.320;18.042;2023-07-24T13:52:17;4.97;;;1.15;;
25657;SDS011;13517;59.320;18.042;2023-07-24T13:54:43;1.63;;;0.98;;
25657;SDS011;13517;59.320;18.042;2023-07-24T13:57:08;1.38;;;0.90;;
25657;SDS011;13517;59.320;18.042;2023-07-24T13:59:37;2.83;;;0.90;;
25657;SDS011;13517;59.320;18.042;2023-07-24T14:02:05;1.70;;;1.00;;
25657;SDS011;13517;59.320;18.042;2023-07-24T14:04:31;2.03;;;1.00;;
25657;SDS011;13517;59.320;18.042;2023-07-24T14:06:56;1.80;;;1.10;;
25657;SDS011;13517;59.320;18.042;2023-07-24T14:09:22;1.30;;;1.10;;
25657;SDS011;13517;59.320;18.042;2023-07-24T14:11:48;1.83;;;1.20;;
25657;SDS011;13517;59.320;18.042;2023-07-24T14:14:15;3.17;;;0.90;;
25657;SDS011;13517;59.320;18.042;2023-07-24T14:16:42;1.45;;;1.05;;
25657;SDS011;13517;59.320;18.042;2023-07-24T14:19:08;1.52;;;1.05;;
25657;SDS011;13517;59.320;18.042;2023-07-24T14:21:33;3.67;;;1.20;;
25657;SDS011;13517;59.320;18.042;2023-07-24T14:23:59;4.45;;;1.05;;
25657;SDS011;13517;59.320;18.042;2023-07-24T14:26:24;2.15;;;0.90;;
25657;SDS011;13517;59.320;18.042;2023-07-24T14:28:49;3.03;;;1.42;;
25657;SDS011;13517;59.320;18.042;2023-07-24T14:31:15;4.57;;;1.13;;
25657;SDS011;13517;59.320;18.042;2023-07-24T14:33:40;1.42;;;1.00;;
25657;SDS011;13517;59.320;18.042;2023-07-24T14:36:05;4.05;;;1.27;;
25657;SDS011;13517;59.320;18.042;2023-07-24T14:38:31;3.90;;;1.30;;
25657;SDS011;13517;59.320;18.042;2023-07-24T14:40:56;3.80;;;1.00;;
25657;SDS011;13517;59.320;18.042;2023-07-24T14:43:21;6.43;;;1.27;;